Time;durP1;ratioP1;P1;durP2;ratioP2;P2;SDS_P1;SDS_P2;PMS_P1;PMS_P2;Temp;Humidity;BMP_temperature;BMP_pressure;BME280_temperature;BME280_humidity;BME280_pressure;Samples;Min_cycle;Max_cycle;Signal;HPM_P1;HPM_P2
2021/05/05 00:01:20;;;;;;;4.57;2.93;;;9.00;99.90;;;;;;4758298;30;20520;-94
2021/05/05 00:04:56;;;;;;;5.63;3.30;;;8.90;99.90;;;;;;4755361;30;20624;-94
2021/05/05 00:08:45;;;;;;;6.22;3.33;;;8.90;99.90;;;;;;4760656;30;20454;-94
2021/05/05 00:12:17;;;;;;;4.22;2.90;;;8.90;99.90;;;;;;4762232;29;21101;-94
2021/05/05 00:16:06;;;;;;;6.70;3.53;;;8.90;99.90;;;;;;4723707;30;20440;-96
2021/05/05 00:19:44;;;;;;;4.97;3.05;;;8.80;99.90;;;;;;4752288;30;20799;-95
2021/05/05 00:26:50;;;;;;;6.45;3.20;;;8.80;99.90;;;;;;4743005;30;20489;-93
2021/05/05 00:30:46;;;;;;;7.97;3.22;;;8.70;99.90;;;;;;4724264;30;20471;-94
2021/05/05 00:34:42;;;;;;;5.78;3.30;;;8.70;99.90;;;;;;4705664;30;21083;-94
2021/05/05 02:23:07;;;;;;;8.63;4.35;;;7.60;99.90;;;;;;5165896;23;20734;31
2021/05/05 02:29:45;;;;;;;6.20;4.68;;;7.40;99.90;;;;;;4912169;29;20473;-95
2021/05/05 02:33:05;;;;;;;7.80;4.53;;;7.30;99.90;;;;;;4892564;29;20779;-94
2021/05/05 02:36:31;;;;;;;7.80;4.68;;;7.20;99.90;;;;;;4901450;29;20441;-95
2021/05/05 02:39:55;;;;;;;8.20;4.90;;;7.20;99.90;;;;;;4906845;29;20438;-96
2021/05/05 02:43:37;;;;;;;6.30;4.60;;;7.30;99.90;;;;;;4868750;29;20467;-95
2021/05/05 02:50:31;;;;;;;6.88;5.13;;;7.30;99.90;;;;;;4866084;29;20452;-95
2021/05/05 02:53:44;;;;;;;6.60;4.45;;;7.40;99.90;;;;;;4774867;30;20432;-94
2021/05/05 02:56:25;;;;;;;7.40;4.60;;;7.50;99.90;;;;;;4764402;30;20533;-95
2021/05/05 02:59:14;;;;;;;6.18;4.10;;;7.50;99.90;;;;;;4778774;30;20446;-95
2021/05/05 03:01:50;;;;;;;7.78;4.68;;;7.50;99.90;;;;;;4777958;30;20576;-95
2021/05/05 03:04:22;;;;;;;5.87;4.60;;;7.60;99.90;;;;;;4762464;30;20455;-96
2021/05/05 03:07:23;;;;;;;7.80;4.43;;;7.70;99.90;;;;;;4957988;23;20779;-95
2021/05/05 03:10:09;;;;;;;9.82;4.72;;;7.70;99.90;;;;;;4944802;29;20835;-94
2021/05/05 03:12:58;;;;;;;7.70;4.70;;;7.70;99.90;;;;;;4906652;29;20423;-95
2021/05/05 03:15:40;;;;;;;6.13;4.50;;;7.70;99.90;;;;;;4947470;29;20427;-95
2021/05/05 03:18:24;;;;;;;9.27;4.75;;;7.60;99.90;;;;;;4913661;29;20495;-95
2021/05/05 03:21:03;;;;;;;7.43;4.30;;;7.60;99.90;;;;;;4943014;29;20434;-95
2021/05/05 03:23:37;;;;;;;7.38;4.68;;;7.60;99.90;;;;;;4940896;29;20500;-93
2021/05/05 03:26:11;;;;;;;6.83;4.10;;;7.60;99.90;;;;;;4940497;29;20416;-94
2021/05/05 03:28:44;;;;;;;7.50;4.20;;;7.60;99.90;;;;;;4952172;29;20559;-96
2021/05/05 03:31:40;;;;;;;8.07;4.20;;;7.70;99.90;;;;;;4939015;29;20431;-93
2021/05/05 03:34:21;;;;;;;6.05;4.28;;;7.80;99.90;;;;;;4921979;29;20423;-94
2021/05/05 03:36:48;;;;;;;7.53;4.47;;;7.80;99.90;;;;;;4927414;29;20462;-96
2021/05/05 03:39:26;;;;;;;7.35;4.30;;;7.80;99.90;;;;;;4928833;29;20508;-92
2021/05/05 03:41:56;;;;;;;6.32;4.30;;;7.80;99.90;;;;;;4916540;29;20652;-96
2021/05/05 03:44:34;;;;;;;7.97;4.27;;;7.90;99.90;;;;;;4946119;29;20454;-96
2021/05/05 03:47:04;;;;;;;8.15;4.57;;;8.00;99.90;;;;;;4929570;29;20442;-94
2021/05/05 03:49:32;;;;;;;7.17;4.40;;;8.00;99.90;;;;;;4928705;29;20435;-94
2021/05/05 03:52:02;;;;;;;6.20;4.03;;;8.00;99.90;;;;;;4924319;29;20844;-95
2021/05/05 03:54:30;;;;;;;7.40;4.30;;;8.10;99.90;;;;;;4944112;29;20415;-94
2021/05/05 03:57:04;;;;;;;8.35;4.50;;;8.00;99.90;;;;;;4930127;29;20431;-94
2021/05/05 03:59:43;;;;;;;7.55;4.53;;;8.10;99.90;;;;;;4946389;29;21113;-95
2021/05/05 04:02:28;;;;;;;10.05;5.00;;;8.00;99.90;;;;;;4931537;29;20424;-96
2021/05/05 04:05:15;;;;;;;7.27;4.40;;;8.00;99.90;;;;;;4914787;29;20461;-94
2021/05/05 04:07:51;;;;;;;10.23;4.47;;;8.00;99.90;;;;;;4928375;29;20464;-96
2021/05/05 04:10:22;;;;;;;10.07;4.85;;;8.00;99.90;;;;;;4911011;29;20520;-94
2021/05/05 04:13:01;;;;;;;6.43;4.85;;;7.90;99.90;;;;;;4897590;29;20988;-96
2021/05/05 04:16:21;;;;;;;9.25;4.40;;;7.90;99.90;;;;;;4876233;29;20433;-95
2021/05/05 04:19:08;;;;;;;7.10;4.50;;;8.00;99.90;;;;;;4918370;29;20494;-95
2021/05/05 04:22:32;;;;;;;8.35;4.85;;;7.90;99.90;;;;;;4917974;29;20433;-96
2021/05/05 04:25:43;;;;;;;7.60;4.83;;;8.00;99.90;;;;;;4890316;29;20436;-96
2021/05/05 04:28:51;;;;;;;8.93;4.82;;;8.00;99.90;;;;;;4928089;29;20453;-95
2021/05/05 04:32:03;;;;;;;7.60;4.63;;;8.00;99.90;;;;;;4910044;29;20460;-94
2021/05/05 04:35:09;;;;;;;6.33;4.83;;;8.10;99.90;;;;;;4916541;29;20445;-96
2021/05/05 04:38:06;;;;;;;6.00;4.28;;;8.10;99.90;;;;;;4927380;29;20429;-93
2021/05/05 04:40:34;;;;;;;7.90;4.93;;;8.00;99.90;;;;;;4924309;29;20500;-95
2021/05/05 04:43:01;;;;;;;11.75;4.40;;;8.20;99.90;;;;;;4906978;29;20511;-94
2021/05/05 04:45:35;;;;;;;7.30;4.78;;;8.20;99.90;;;;;;4912363;29;20940;-94
2021/05/05 04:48:17;;;;;;;6.88;4.28;;;8.30;99.90;;;;;;4910910;29;20421;-93
2021/05/05 04:54:17;;;;;;;9.43;5.00;;;8.30;99.90;;;;;;4911920;29;20426;-93
2021/05/05 04:57:29;;;;;;;7.00;4.60;;;8.40;99.90;;;;;;4909864;29;20442;-92
2021/05/05 05:00:23;;;;;;;10.07;4.80;;;8.40;99.90;;;;;;4895305;29;20402;-96
2021/05/05 05:02:57;;;;;;;6.60;4.93;;;8.40;99.90;;;;;;4906003;29;20502;-96
2021/05/05 05:06:14;;;;;;;9.13;4.57;;;8.40;99.90;;;;;;4914509;29;20426;-93
2021/05/05 05:09:09;;;;;;;6.87;4.40;;;8.60;99.90;;;;;;4853412;29;20444;-94
2021/05/05 05:16:28;;;;;;;7.05;4.70;;;8.60;99.90;;;;;;4851970;29;20983;-93
2021/05/05 05:20:05;;;;;;;9.50;4.60;;;8.60;99.90;;;;;;4845482;29;20511;-94
2021/05/05 05:26:34;;;;;;;5.88;4.38;;;8.80;99.90;;;;;;4847620;29;20905;-94
2021/05/05 05:30:20;;;;;;;9.23;5.20;;;8.80;99.90;;;;;;4842795;29;20535;-94
2021/05/05 05:33:31;;;;;;;6.80;4.30;;;8.80;99.90;;;;;;4766750;30;20450;-96
2021/05/05 05:37:05;;;;;;;6.88;3.92;;;9.00;99.90;;;;;;4759829;30;20527;-94
2021/05/05 05:49:40;;;;;;;6.75;3.78;;;8.70;99.90;;;;;;4945659;29;20856;-96
2021/05/05 05:52:10;;;;;;;4.57;3.50;;;8.80;99.90;;;;;;4928207;29;20454;-96
2021/05/05 05:54:42;;;;;;;5.72;3.60;;;8.70;99.90;;;;;;4929427;29;20435;-96
2021/05/05 05:57:13;;;;;;;7.20;3.92;;;8.80;99.90;;;;;;4930929;29;20486;-96
2021/05/05 05:59:52;;;;;;;3.90;3.30;;;8.90;99.90;;;;;;4918472;29;20436;-96
2021/05/05 06:02:20;;;;;;;7.73;4.27;;;9.00;99.90;;;;;;4928447;29;20427;-96
2021/05/05 06:05:22;;;;;;;4.57;3.47;;;9.00;99.90;;;;;;4934104;29;20474;-95
2021/05/05 06:07:53;;;;;;;5.25;3.55;;;9.20;99.90;;;;;;4872637;29;20556;-95
2021/05/05 06:10:36;;;;;;;5.25;3.70;;;9.20;99.90;;;;;;4860344;29;20446;-96
2021/05/05 06:13:08;;;;;;;5.75;3.40;;;9.20;99.90;;;;;;4845995;29;20470;-96
2021/05/05 06:16:04;;;;;;;5.07;3.40;;;9.20;99.90;;;;;;4861394;29;20431;-94
2021/05/05 06:21:41;;;;;;;5.22;3.92;;;9.10;99.90;;;;;;5668080;23;20799;-96
2021/05/05 06:35:37;;;;;;;6.32;3.20;;;9.30;99.90;;;;;;5443315;23;20441;-95
2021/05/05 06:38:03;;;;;;;6.27;3.60;;;9.20;99.90;;;;;;4924209;29;20435;-92
2021/05/05 06:40:46;;;;;;;3.92;2.75;;;9.20;99.90;;;;;;4930405;28;20419;-96
2021/05/05 06:43:59;;;;;;;4.45;3.50;;;9.40;99.90;;;;;;4924008;28;20435;-95
2021/05/05 06:47:54;;;;;;;5.03;3.27;;;9.40;99.90;;;;;;4788121;29;20426;-95
2021/05/05 06:51:34;;;;;;;4.88;3.22;;;9.20;99.90;;;;;;4729790;30;20453;-93
2021/05/05 06:58:44;;;;;;;5.22;3.85;;;9.20;99.90;;;;;;4732837;30;20508;-96
2021/05/05 07:34:51;;;;;;;6.30;3.80;;;9.00;99.90;;;;;;4909145;29;20442;-93
2021/05/05 14:49:37;;;;;;;8.13;3.10;;;6.90;99.90;;;;;;4807225;29;20458;-96
2021/05/05 16:22:32;;;;;;;4.25;2.03;;;6.50;99.90;;;;;;4876408;29;20419;-96
2021/05/05 17:08:19;;;;;;;3.77;1.50;;;7.10;99.90;;;;;;4930127;29;20529;-96
2021/05/05 17:11:27;;;;;;;3.83;1.48;;;6.90;99.90;;;;;;4922632;29;20452;-95
2021/05/05 17:14:09;;;;;;;2.35;0.98;;;6.50;99.90;;;;;;4913811;29;20430;-96
2021/05/05 17:16:45;;;;;;;2.55;1.10;;;6.20;99.90;;;;;;4924966;29;20433;-96
2021/05/05 17:22:23;;;;;;;1.48;1.00;;;6.40;99.90;;;;;;4929220;29;20521;-96
2021/05/05 18:30:50;;;;;;;1.52;0.77;;;4.60;99.90;;;;;;592571;23;20713;-96
2021/05/05 18:33:23;;;;;;;1.63;0.70;;;4.50;99.90;;;;;;4895239;29;20448;-95
2021/05/05 18:35:59;;;;;;;1.00;0.60;;;4.50;99.90;;;;;;4892595;29;20449;-96
2021/05/05 18:39:06;;;;;;;2.83;1.20;;;4.40;99.90;;;;;;4885326;29;20424;-96
2021/05/05 22:29:43;;;;;;;2.15;1.30;;;2.10;99.90;;;;;;5838714;23;20393;-96
2021/05/05 23:12:18;;;;;;;4.82;1.73;;;2.20;99.90;;;;;;5067145;23;20454;-96
2021/05/05 23:21:59;;;;;;;2.15;1.30;;;2.40;99.90;;;;;;4950337;29;20918;-96
2021/05/05 23:25:38;;;;;;;3.35;1.65;;;2.40;99.90;;;;;;4903133;29;20410;-94
2021/05/05 23:53:56;;;;;;;4.22;1.98;;;2.30;99.90;;;;;;4937180;29;20509;-96
